sensor_id;sensor_type;location;lat;lon;timestamp;P1;durP1;ratioP1;P2;durP2;ratioP2
4963;SDS011;2497;47.410;9.740;2022-12-20T00:01:06;8.50;;;4.50;;
4963;SDS011;2497;47.410;9.740;2022-12-20T00:03:34;6.97;;;3.50;;
4963;SDS011;2497;47.410;9.740;2022-12-20T00:06:02;2.73;;;2.13;;
4963;SDS011;2497;47.410;9.740;2022-12-20T00:08:30;3.30;;;2.27;;
4963;SDS011;2497;47.410;9.740;2022-12-20T00:11:00;3.20;;;3.00;;
4963;SDS011;2497;47.410;9.740;2022-12-20T00:13:31;2.10;;;1.77;;
4963;SDS011;2497;47.410;9.740;2022-12-20T00:16:03;4.83;;;3.23;;
4963;SDS011;2497;47.410;9.740;2022-12-20T00:18:32;14.03;;;3.43;;
4963;SDS011;2497;47.410;9.740;2022-12-20T00:20:59;3.10;;;2.50;;
4963;SDS011;2497;47.410;9.740;2022-12-20T00:23:28;4.80;;;2.47;;
4963;SDS011;2497;47.410;9.740;2022-12-20T00:25:59;3.37;;;2.70;;
4963;SDS011;2497;47.410;9.740;2022-12-20T00:28:27;3.07;;;2.77;;
4963;SDS011;2497;47.410;9.740;2022-12-20T00:30:56;2.57;;;2.37;;
4963;SDS011;2497;47.410;9.740;2022-12-20T00:33:23;3.13;;;2.87;;
4963;SDS011;2497;47.410;9.740;2022-12-20T00:35:51;8.80;;;3.83;;
4963;SDS011;2497;47.410;9.740;2022-12-20T00:38:21;2.83;;;2.63;;
4963;SDS011;2497;47.410;9.740;2022-12-20T00:40:57;4.47;;;3.03;;
4963;SDS011;2497;47.410;9.740;2022-12-20T00:43:26;4.33;;;1.70;;
4963;SDS011;2497;47.410;9.740;2022-12-20T00:45:53;1.87;;;1.67;;
4963;SDS011;2497;47.410;9.740;2022-12-20T00:48:22;1.50;;;1.40;;
4963;SDS011;2497;47.410;9.740;2022-12-20T00:50:50;3.50;;;3.30;;
4963;SDS011;2497;47.410;9.740;2022-12-20T00:53:18;12.47;;;5.37;;
4963;SDS011;2497;47.410;9.740;2022-12-20T00:55:46;3.10;;;2.90;;
4963;SDS011;2497;47.410;9.740;2022-12-20T00:58:13;6.70;;;4.57;;
4963;SDS011;2497;47.410;9.740;2022-12-20T01:00:41;4.00;;;3.63;;
4963;SDS011;2497;47.410;9.740;2022-12-20T01:03:10;4.00;;;3.17;;
4963;SDS011;2497;47.410;9.740;2022-12-20T01:05:37;16.67;;;4.37;;
4963;SDS011;2497;47.410;9.740;2022-12-20T01:08:04;4.87;;;2.30;;
4963;SDS011;2497;47.410;9.740;2022-12-20T01:10:32;11.50;;;8.43;;
4963;SDS011;2497;47.410;9.740;2022-12-20T01:12:59;3.77;;;3.47;;
4963;SDS011;2497;47.410;9.740;2022-12-20T01:15:26;2.33;;;2.20;;
4963;SDS011;2497;47.410;9.740;2022-12-20T01:17:54;5.37;;;3.33;;
4963;SDS011;2497;47.410;9.740;2022-12-20T01:20:23;4.90;;;3.10;;
4963;SDS011;2497;47.410;9.740;2022-12-20T01:22:50;6.73;;;3.50;;
4963;SDS011;2497;47.410;9.740;2022-12-20T01:25:18;4.93;;;2.90;;
4963;SDS011;2497;47.410;9.740;2022-12-20T01:27:45;3.13;;;2.83;;
4963;SDS011;2497;47.410;9.740;2022-12-20T01:30:12;5.80;;;5.40;;
4963;SDS011;2497;47.410;9.740;2022-12-20T01:32:39;6.97;;;4.87;;
4963;SDS011;2497;47.410;9.740;2022-12-20T01:35:07;3.00;;;2.80;;
4963;SDS011;2497;47.410;9.740;2022-12-20T01:37:36;8.70;;;6.27;;
4963;SDS011;2497;47.410;9.740;2022-12-20T01:40:04;6.13;;;2.53;;
4963;SDS011;2497;47.410;9.740;2022-12-20T01:42:33;2.57;;;2.37;;
4963;SDS011;2497;47.410;9.740;2022-12-20T01:45:00;3.17;;;2.90;;
4963;SDS011;2497;47.410;9.740;2022-12-20T01:47:30;6.30;;;4.33;;
4963;SDS011;2497;47.410;9.740;2022-12-20T01:50:02;1.20;;;1.10;;
4963;SDS011;2497;47.410;9.740;2022-12-20T01:52:33;1.60;;;1.50;;
4963;SDS011;2497;47.410;9.740;2022-12-20T01:55:08;15.90;;;3.10;;
4963;SDS011;2497;47.410;9.740;2022-12-20T01:57:39;1.90;;;1.77;;
4963;SDS011;2497;47.410;9.740;2022-12-20T02:00:11;4.40;;;3.60;;
4963;SDS011;2497;47.410;9.740;2022-12-20T02:02:38;2.73;;;2.53;;
4963;SDS011;2497;47.410;9.740;2022-12-20T02:05:08;3.07;;;2.73;;
4963;SDS011;2497;47.410;9.740;2022-12-20T02:07:37;2.07;;;1.30;;
4963;SDS011;2497;47.410;9.740;2022-12-20T02:10:05;3.95;;;2.25;;
4963;SDS011;2497;47.410;9.740;2022-12-20T02:12:36;1.93;;;1.57;;
4963;SDS011;2497;47.410;9.740;2022-12-20T02:15:14;4.83;;;1.90;;
4963;SDS011;2497;47.410;9.740;2022-12-20T02:18:03;4.53;;;2.30;;
4963;SDS011;2497;47.410;9.740;2022-12-20T02:24:07;1.20;;;1.10;;
4963;SDS011;2497;47.410;9.740;2022-12-20T02:27:01;1.13;;;1.02;;
4963;SDS011;2497;47.410;9.740;2022-12-20T02:30:07;1.40;;;1.30;;
4963;SDS011;2497;47.410;9.740;2022-12-20T02:32:38;1.10;;;1.00;;
4963;SDS011;2497;47.410;9.740;2022-12-20T02:35:11;1.60;;;1.50;;
4963;SDS011;2497;47.410;9.740;2022-12-20T02:37:47;1.20;;;1.10;;
4963;SDS011;2497;47.410;9.740;2022-12-20T02:40:16;0.77;;;0.67;;
4963;SDS011;2497;47.410;9.740;2022-12-20T02:42:48;1.67;;;1.55;;
4963;SDS011;2497;47.410;9.740;2022-12-20T02:45:20;0.80;;;0.80;;
4963;SDS011;2497;47.410;9.740;2022-12-20T02:47:51;1.87;;;1.23;;
4963;SDS011;2497;47.410;9.740;2022-12-20T02:50:21;1.77;;;1.67;;
4963;SDS011;2497;47.410;9.740;2022-12-20T02:52:52;3.37;;;1.73;;
4963;SDS011;2497;47.410;9.740;2022-12-20T02:55:20;1.80;;;1.33;;
4963;SDS011;2497;47.410;9.740;2022-12-20T02:57:57;1.10;;;1.00;;
4963;SDS011;2497;47.410;9.740;2022-12-20T03:00:30;2.83;;;1.33;;
4963;SDS011;2497;47.410;9.740;2022-12-20T03:03:03;1.93;;;1.83;;
4963;SDS011;2497;47.410;9.740;2022-12-20T03:05:49;1.27;;;1.17;;
4963;SDS011;2497;47.410;9.740;2022-12-20T03:08:19;1.93;;;1.57;;
4963;SDS011;2497;47.410;9.740;2022-12-20T03:10:47;1.67;;;1.53;;
4963;SDS011;2497;47.410;9.740;2022-12-20T03:13:15;6.97;;;3.90;;
4963;SDS011;2497;47.410;9.740;2022-12-20T03:15:44;2.10;;;1.90;;
4963;SDS011;2497;47.410;9.740;2022-12-20T03:18:12;2.17;;;1.40;;
4963;SDS011;2497;47.410;9.740;2022-12-20T03:20:39;3.37;;;1.60;;
4963;SDS011;2497;47.410;9.740;2022-12-20T03:23:07;5.10;;;2.40;;
4963;SDS011;2497;47.410;9.740;2022-12-20T03:25:34;4.10;;;1.80;;
4963;SDS011;2497;47.410;9.740;2022-12-20T03:28:02;3.10;;;2.10;;
4963;SDS011;2497;47.410;9.740;2022-12-20T03:30:29;2.40;;;1.47;;
4963;SDS011;2497;47.410;9.740;2022-12-20T03:32:59;1.83;;;1.70;;
4963;SDS011;2497;47.410;9.740;2022-12-20T03:35:26;2.97;;;2.70;;
4963;SDS011;2497;47.410;9.740;2022-12-20T03:37:53;2.30;;;1.70;;
4963;SDS011;2497;47.410;9.740;2022-12-20T03:40:21;1.73;;;1.63;;
4963;SDS011;2497;47.410;9.740;2022-12-20T03:42:49;3.00;;;2.50;;
4963;SDS011;2497;47.410;9.740;2022-12-20T03:45:16;2.27;;;2.10;;
4963;SDS011;2497;47.410;9.740;2022-12-20T03:47:44;4.00;;;3.60;;
4963;SDS011;2497;47.410;9.740;2022-12-20T03:50:13;4.00;;;1.90;;
4963;SDS011;2497;47.410;9.740;2022-12-20T03:52:40;10.03;;;2.67;;
4963;SDS011;2497;47.410;9.740;2022-12-20T03:55:07;4.00;;;3.70;;
4963;SDS011;2497;47.410;9.740;2022-12-20T03:57:36;9.00;;;4.30;;
4963;SDS011;2497;47.410;9.740;2022-12-20T04:00:04;4.50;;;3.17;;
4963;SDS011;2497;47.410;9.740;2022-12-20T04:02:33;2.87;;;2.27;;
4963;SDS011;2497;47.410;9.740;2022-12-20T04:05:00;7.23;;;2.07;;
4963;SDS011;2497;47.410;9.740;2022-12-20T04:07:29;3.30;;;2.37;;
4963;SDS011;2497;47.410;9.740;2022-12-20T04:09:57;2.27;;;2.17;;
4963;SDS011;2497;47.410;9.740;2022-12-20T04:12:24;4.97;;;2.23;;
4963;SDS011;2497;47.410;9.740;2022-12-20T04:14:52;1.53;;;1.43;;
4963;SDS011;2497;47.410;9.740;2022-12-20T04:17:19;0.90;;;0.80;;
4963;SDS011;2497;47.410;9.740;2022-12-20T04:19:46;8.37;;;2.80;;
4963;SDS011;2497;47.410;9.740;2022-12-20T04:22:14;4.17;;;2.50;;
4963;SDS011;2497;47.410;9.740;2022-12-20T04:24:43;1.03;;;0.93;;
4963;SDS011;2497;47.410;9.740;2022-12-20T04:27:10;0.80;;;0.80;;
4963;SDS011;2497;47.410;9.740;2022-12-20T04:29:38;2.00;;;1.80;;
4963;SDS011;2497;47.410;9.740;2022-12-20T04:32:05;1.60;;;1.40;;
4963;SDS011;2497;47.410;9.740;2022-12-20T04:34:33;0.80;;;0.70;;
4963;SDS011;2497;47.410;9.740;2022-12-20T04:37:00;0.77;;;0.70;;
4963;SDS011;2497;47.410;9.740;2022-12-20T04:39:27;1.00;;;0.90;;
4963;SDS011;2497;47.410;9.740;2022-12-20T04:41:56;2.13;;;1.10;;
4963;SDS011;2497;47.410;9.740;2022-12-20T04:44:24;1.20;;;1.10;;
4963;SDS011;2497;47.410;9.740;2022-12-20T04:46:51;1.47;;;1.00;;
4963;SDS011;2497;47.410;9.740;2022-12-20T04:49:19;0.80;;;0.77;;
4963;SDS011;2497;47.410;9.740;2022-12-20T04:51:46;0.80;;;0.70;;
4963;SDS011;2497;47.410;9.740;2022-12-20T04:54:13;1.87;;;1.27;;
4963;SDS011;2497;47.410;9.740;2022-12-20T04:56:39;0.80;;;0.70;;
4963;SDS011;2497;47.410;9.740;2022-12-20T04:59:08;1.53;;;1.43;;
4963;SDS011;2497;47.410;9.740;2022-12-20T05:01:36;1.30;;;1.20;;
4963;SDS011;2497;47.410;9.740;2022-12-20T05:04:03;1.67;;;1.57;;
4963;SDS011;2497;47.410;9.740;2022-12-20T05:06:31;1.40;;;1.20;;
4963;SDS011;2497;47.410;9.740;2022-12-20T05:08:59;3.90;;;1.60;;
4963;SDS011;2497;47.410;9.740;2022-12-20T05:11:26;2.30;;;1.63;;
4963;SDS011;2497;47.410;9.740;2022-12-20T05:13:54;1.00;;;0.90;;
4963;SDS011;2497;47.410;9.740;2022-12-20T05:16:23;2.20;;;1.57;;
4963;SDS011;2497;47.410;9.740;2022-12-20T05:18:50;1.00;;;0.90;;
4963;SDS011;2497;47.410;9.740;2022-12-20T05:21:17;1.93;;;1.70;;
4963;SDS011;2497;47.410;9.740;2022-12-20T05:24:14;0.80;;;0.60;;
4963;SDS011;2497;47.410;9.740;2022-12-20T05:26:58;0.80;;;0.70;;
4963;SDS011;2497;47.410;9.740;2022-12-20T05:29:26;1.33;;;1.23;;
4963;SDS011;2497;47.410;9.740;2022-12-20T05:31:55;1.57;;;1.47;;
4963;SDS011;2497;47.410;9.740;2022-12-20T05:34:23;1.50;;;1.40;;
4963;SDS011;2497;47.410;9.740;2022-12-20T05:36:50;4.80;;;2.07;;
4963;SDS011;2497;47.410;9.740;2022-12-20T05:39:17;1.30;;;1.20;;
4963;SDS011;2497;47.410;9.740;2022-12-20T05:41:44;3.73;;;2.90;;
4963;SDS011;2497;47.410;9.740;2022-12-20T05:44:12;1.67;;;0.90;;
4963;SDS011;2497;47.410;9.740;2022-12-20T05:46:39;1.30;;;1.20;;
4963;SDS011;2497;47.410;9.740;2022-12-20T05:49:08;1.17;;;1.07;;
4963;SDS011;2497;47.410;9.740;2022-12-20T05:51:36;1.80;;;1.70;;
4963;SDS011;2497;47.410;9.740;2022-12-20T05:54:03;1.20;;;1.10;;
4963;SDS011;2497;47.410;9.740;2022-12-20T05:56:31;1.70;;;1.60;;
4963;SDS011;2497;47.410;9.740;2022-12-20T05:58:58;1.33;;;1.17;;
4963;SDS011;2497;47.410;9.740;2022-12-20T06:01:26;1.53;;;1.43;;
4963;SDS011;2497;47.410;9.740;2022-12-20T06:03:53;1.93;;;1.83;;
4963;SDS011;2497;47.410;9.740;2022-12-20T06:06:22;1.60;;;1.50;;
4963;SDS011;2497;47.410;9.740;2022-12-20T06:08:49;5.10;;;1.93;;
4963;SDS011;2497;47.410;9.740;2022-12-20T06:11:16;0.80;;;0.77;;
4963;SDS011;2497;47.410;9.740;2022-12-20T06:13:43;2.33;;;2.03;;
4963;SDS011;2497;47.410;9.740;2022-12-20T06:16:11;4.60;;;1.80;;
4963;SDS011;2497;47.410;9.740;2022-12-20T06:18:38;2.17;;;1.97;;
4963;SDS011;2497;47.410;9.740;2022-12-20T06:21:06;3.73;;;2.53;;
4963;SDS011;2497;47.410;9.740;2022-12-20T06:23:34;3.50;;;2.03;;
4963;SDS011;2497;47.410;9.740;2022-12-20T06:26:02;2.73;;;1.83;;
4963;SDS011;2497;47.410;9.740;2022-12-20T06:28:29;4.30;;;2.73;;
4963;SDS011;2497;47.410;9.740;2022-12-20T06:30:57;2.43;;;2.20;;
4963;SDS011;2497;47.410;9.740;2022-12-20T06:33:24;2.40;;;2.20;;
4963;SDS011;2497;47.410;9.740;2022-12-20T06:35:51;4.20;;;1.53;;
4963;SDS011;2497;47.410;9.740;2022-12-20T06:38:19;2.30;;;2.10;;
4963;SDS011;2497;47.410;9.740;2022-12-20T06:40:48;1.83;;;1.60;;
4963;SDS011;2497;47.410;9.740;2022-12-20T06:43:15;2.93;;;2.57;;
4963;SDS011;2497;47.410;9.740;2022-12-20T06:45:42;5.83;;;3.30;;
4963;SDS011;2497;47.410;9.740;2022-12-20T06:48:10;3.77;;;2.93;;
4963;SDS011;2497;47.410;9.740;2022-12-20T06:50:37;2.00;;;1.90;;
4963;SDS011;2497;47.410;9.740;2022-12-20T06:53:04;8.37;;;3.77;;
4963;SDS011;2497;47.410;9.740;2022-12-20T06:55:32;2.27;;;2.07;;
4963;SDS011;2497;47.410;9.740;2022-12-20T06:58:02;2.20;;;2.00;;
4963;SDS011;2497;47.410;9.740;2022-12-20T07:00:29;2.93;;;2.70;;
4963;SDS011;2497;47.410;9.740;2022-12-20T07:02:57;2.60;;;2.40;;
4963;SDS011;2497;47.410;9.740;2022-12-20T07:05:25;1.80;;;1.70;;
4963;SDS011;2497;47.410;9.740;2022-12-20T07:07:52;6.80;;;5.13;;
4963;SDS011;2497;47.410;9.740;2022-12-20T07:10:20;2.63;;;2.00;;
4963;SDS011;2497;47.410;9.740;2022-12-20T07:12:47;7.40;;;3.80;;
4963;SDS011;2497;47.410;9.740;2022-12-20T07:15:16;2.10;;;2.00;;
4963;SDS011;2497;47.410;9.740;2022-12-20T07:17:44;5.90;;;4.17;;
4963;SDS011;2497;47.410;9.740;2022-12-20T07:20:11;3.27;;;2.27;;
4963;SDS011;2497;47.410;9.740;2022-12-20T07:22:40;10.13;;;2.17;;
4963;SDS011;2497;47.410;9.740;2022-12-20T07:25:08;3.70;;;2.40;;
4963;SDS011;2497;47.410;9.740;2022-12-20T07:27:35;3.40;;;3.10;;
4963;SDS011;2497;47.410;9.740;2022-12-20T07:30:03;5.63;;;2.40;;
4963;SDS011;2497;47.410;9.740;2022-12-20T07:32:33;2.27;;;2.10;;
4963;SDS011;2497;47.410;9.740;2022-12-20T07:35:00;3.23;;;3.00;;
4963;SDS011;2497;47.410;9.740;2022-12-20T07:37:27;1.70;;;1.60;;
4963;SDS011;2497;47.410;9.740;2022-12-20T07:39:55;1.93;;;1.80;;
4963;SDS011;2497;47.410;9.740;2022-12-20T07:42:23;2.03;;;1.73;;
4963;SDS011;2497;47.410;9.740;2022-12-20T07:44:50;1.67;;;1.57;;
4963;SDS011;2497;47.410;9.740;2022-12-20T07:47:17;2.10;;;1.90;;
4963;SDS011;2497;47.410;9.740;2022-12-20T07:49:46;5.90;;;3.60;;
4963;SDS011;2497;47.410;9.740;2022-12-20T07:52:14;2.67;;;1.97;;
4963;SDS011;2497;47.410;9.740;2022-12-20T07:54:46;1.20;;;1.10;;
4963;SDS011;2497;47.410;9.740;2022-12-20T07:57:18;4.83;;;2.23;;
4963;SDS011;2497;47.410;9.740;2022-12-20T07:59:51;1.60;;;1.50;;
4963;SDS011;2497;47.410;9.740;2022-12-20T08:02:21;2.30;;;2.07;;
4963;SDS011;2497;47.410;9.740;2022-12-20T08:04:53;4.03;;;1.80;;
4963;SDS011;2497;47.410;9.740;2022-12-20T08:07:21;1.90;;;1.80;;
4963;SDS011;2497;47.410;9.740;2022-12-20T08:09:49;1.37;;;1.27;;
4963;SDS011;2497;47.410;9.740;2022-12-20T08:12:16;2.03;;;1.93;;
4963;SDS011;2497;47.410;9.740;2022-12-20T08:14:45;2.07;;;1.87;;
4963;SDS011;2497;47.410;9.740;2022-12-20T08:17:16;2.23;;;2.03;;
4963;SDS011;2497;47.410;9.740;2022-12-20T08:19:43;2.30;;;2.10;;
4963;SDS011;2497;47.410;9.740;2022-12-20T08:22:13;1.47;;;1.37;;
4963;SDS011;2497;47.410;9.740;2022-12-20T08:24:40;1.40;;;1.30;;
4963;SDS011;2497;47.410;9.740;2022-12-20T08:27:07;1.50;;;1.40;;
4963;SDS011;2497;47.410;9.740;2022-12-20T08:29:35;4.60;;;2.20;;
4963;SDS011;2497;47.410;9.740;2022-12-20T08:32:02;7.93;;;3.80;;
4963;SDS011;2497;47.410;9.740;2022-12-20T08:34:30;2.03;;;0.90;;
4963;SDS011;2497;47.410;9.740;2022-12-20T08:36:57;2.27;;;2.17;;
4963;SDS011;2497;47.410;9.740;2022-12-20T08:39:27;2.77;;;2.57;;
4963;SDS011;2497;47.410;9.740;2022-12-20T08:41:54;1.60;;;1.37;;
4963;SDS011;2497;47.410;9.740;2022-12-20T08:44:22;1.60;;;1.50;;
4963;SDS011;2497;47.410;9.740;2022-12-20T08:46:50;4.43;;;4.00;;
4963;SDS011;2497;47.410;9.740;2022-12-20T08:49:18;11.03;;;3.83;;
4963;SDS011;2497;47.410;9.740;2022-12-20T08:51:45;9.47;;;4.17;;
4963;SDS011;2497;47.410;9.740;2022-12-20T08:54:12;4.00;;;2.53;;
4963;SDS011;2497;47.410;9.740;2022-12-20T08:56:43;2.30;;;2.17;;
4963;SDS011;2497;47.410;9.740;2022-12-20T08:59:10;9.20;;;2.83;;
4963;SDS011;2497;47.410;9.740;2022-12-20T09:01:37;3.83;;;3.43;;
4963;SDS011;2497;47.410;9.740;2022-12-20T09:04:05;2.33;;;1.90;;
4963;SDS011;2497;47.410;9.740;2022-12-20T09:06:33;7.40;;;2.47;;
4963;SDS011;2497;47.410;9.740;2022-12-20T09:09:00;1.90;;;1.60;;
4963;SDS011;2497;47.410;9.740;2022-12-20T09:11:29;3.43;;;1.87;;
4963;SDS011;2497;47.410;9.740;2022-12-20T09:13:58;3.63;;;2.60;;
4963;SDS011;2497;47.410;9.740;2022-12-20T09:16:26;2.50;;;2.20;;
4963;SDS011;2497;47.410;9.740;2022-12-20T09:18:57;3.30;;;3.00;;
4963;SDS011;2497;47.410;9.740;2022-12-20T09:21:26;5.97;;;3.23;;
4963;SDS011;2497;47.410;9.740;2022-12-20T09:23:55;1.67;;;1.57;;
4963;SDS011;2497;47.410;9.740;2022-12-20T09:26:23;3.80;;;3.07;;
4963;SDS011;2497;47.410;9.740;2022-12-20T09:28:51;1.90;;;1.80;;
4963;SDS011;2497;47.410;9.740;2022-12-20T09:31:21;2.60;;;2.10;;
4963;SDS011;2497;47.410;9.740;2022-12-20T09:33:51;1.60;;;1.50;;
4963;SDS011;2497;47.410;9.740;2022-12-20T09:36:20;7.70;;;1.83;;
4963;SDS011;2497;47.410;9.740;2022-12-20T09:38:48;1.77;;;1.67;;
4963;SDS011;2497;47.410;9.740;2022-12-20T09:41:19;4.40;;;2.10;;
4963;SDS011;2497;47.410;9.740;2022-12-20T09:43:53;3.30;;;2.73;;
4963;SDS011;2497;47.410;9.740;2022-12-20T09:46:22;1.60;;;1.50;;
4963;SDS011;2497;47.410;9.740;2022-12-20T09:48:51;1.53;;;1.43;;
4963;SDS011;2497;47.410;9.740;2022-12-20T09:51:23;18.37;;;3.77;;
4963;SDS011;2497;47.410;9.740;2022-12-20T09:54:11;2.73;;;2.10;;
4963;SDS011;2497;47.410;9.740;2022-12-20T09:56:46;3.53;;;2.23;;
4963;SDS011;2497;47.410;9.740;2022-12-20T09:59:23;1.57;;;1.47;;
4963;SDS011;2497;47.410;9.740;2022-12-20T10:01:52;3.20;;;2.90;;
4963;SDS011;2497;47.410;9.740;2022-12-20T10:04:20;1.83;;;1.73;;
4963;SDS011;2497;47.410;9.740;2022-12-20T10:07:02;2.13;;;1.93;;
4963;SDS011;2497;47.410;9.740;2022-12-20T10:12:36;9.47;;;2.87;;
4963;SDS011;2497;47.410;9.740;2022-12-20T10:15:15;4.03;;;2.17;;
4963;SDS011;2497;47.410;9.740;2022-12-20T10:17:52;11.20;;;1.90;;
4963;SDS011;2497;47.410;9.740;2022-12-20T10:20:30;3.93;;;3.13;;
4963;SDS011;2497;47.410;9.740;2022-12-20T10:23:07;5.07;;;2.33;;
4963;SDS011;2497;47.410;9.740;2022-12-20T10:25:40;4.37;;;2.90;;
4963;SDS011;2497;47.410;9.740;2022-12-20T10:28:10;5.00;;;4.23;;
4963;SDS011;2497;47.410;9.740;2022-12-20T10:30:40;3.17;;;2.23;;
4963;SDS011;2497;47.410;9.740;2022-12-20T10:33:13;5.53;;;3.47;;
4963;SDS011;2497;47.410;9.740;2022-12-20T10:35:46;2.97;;;2.77;;
4963;SDS011;2497;47.410;9.740;2022-12-20T10:38:14;5.30;;;3.10;;
4963;SDS011;2497;47.410;9.740;2022-12-20T10:40:43;5.13;;;2.70;;
4963;SDS011;2497;47.410;9.740;2022-12-20T10:43:14;4.03;;;2.90;;
4963;SDS011;2497;47.410;9.740;2022-12-20T10:45:44;4.83;;;3.57;;
4963;SDS011;2497;47.410;9.740;2022-12-20T10:48:25;3.17;;;2.90;;
4963;SDS011;2497;47.410;9.740;2022-12-20T10:51:00;6.33;;;4.60;;
4963;SDS011;2497;47.410;9.740;2022-12-20T10:53:30;8.40;;;4.50;;
4963;SDS011;2497;47.410;9.740;2022-12-20T10:56:11;7.23;;;4.30;;
4963;SDS011;2497;47.410;9.740;2022-12-20T10:58:50;9.30;;;6.20;;
4963;SDS011;2497;47.410;9.740;2022-12-20T11:01:20;9.70;;;4.90;;
4963;SDS011;2497;47.410;9.740;2022-12-20T11:03:53;16.20;;;5.20;;
4963;SDS011;2497;47.410;9.740;2022-12-20T11:06:23;5.53;;;3.83;;
4963;SDS011;2497;47.410;9.740;2022-12-20T11:08:52;3.03;;;2.83;;
4963;SDS011;2497;47.410;9.740;2022-12-20T11:11:20;5.13;;;4.63;;
4963;SDS011;2497;47.410;9.740;2022-12-20T11:13:49;11.83;;;5.10;;
4963;SDS011;2497;47.410;9.740;2022-12-20T11:16:25;4.47;;;2.93;;
4963;SDS011;2497;47.410;9.740;2022-12-20T11:19:07;4.20;;;3.40;;
4963;SDS011;2497;47.410;9.740;2022-12-20T11:21:56;4.30;;;3.97;;
4963;SDS011;2497;47.410;9.740;2022-12-20T11:24:31;6.50;;;4.00;;
4963;SDS011;2497;47.410;9.740;2022-12-20T11:30:05;5.57;;;3.30;;
4963;SDS011;2497;47.410;9.740;2022-12-20T11:32:41;4.27;;;3.83;;
4963;SDS011;2497;47.410;9.740;2022-12-20T11:35:23;2.30;;;1.40;;
4963;SDS011;2497;47.410;9.740;2022-12-20T11:37:59;4.13;;;2.83;;
4963;SDS011;2497;47.410;9.740;2022-12-20T11:40:35;3.60;;;2.73;;
4963;SDS011;2497;47.410;9.740;2022-12-20T11:43:12;4.47;;;3.37;;
4963;SDS011;2497;47.410;9.740;2022-12-20T11:45:54;11.97;;;4.27;;
4963;SDS011;2497;47.410;9.740;2022-12-20T11:48:38;5.20;;;4.17;;
4963;SDS011;2497;47.410;9.740;2022-12-20T11:51:21;4.60;;;3.33;;
4963;SDS011;2497;47.410;9.740;2022-12-20T11:53:52;5.37;;;4.20;;
4963;SDS011;2497;47.410;9.740;2022-12-20T11:56:24;6.77;;;4.00;;
4963;SDS011;2497;47.410;9.740;2022-12-20T11:58:56;5.50;;;4.60;;
4963;SDS011;2497;47.410;9.740;2022-12-20T12:01:31;11.57;;;7.17;;
4963;SDS011;2497;47.410;9.740;2022-12-20T12:04:06;3.90;;;3.60;;
4963;SDS011;2497;47.410;9.740;2022-12-20T12:06:40;7.13;;;5.37;;
4963;SDS011;2497;47.410;9.740;2022-12-20T12:09:14;5.70;;;4.63;;
4963;SDS011;2497;47.410;9.740;2022-12-20T12:11:48;15.03;;;5.83;;
4963;SDS011;2497;47.410;9.740;2022-12-20T12:14:24;8.80;;;6.17;;
4963;SDS011;2497;47.410;9.740;2022-12-20T12:16:58;8.63;;;5.57;;
4963;SDS011;2497;47.410;9.740;2022-12-20T12:19:33;14.30;;;5.63;;
4963;SDS011;2497;47.410;9.740;2022-12-20T12:22:08;8.83;;;4.23;;
4963;SDS011;2497;47.410;9.740;2022-12-20T12:24:41;13.40;;;6.20;;
4963;SDS011;2497;47.410;9.740;2022-12-20T12:27:20;9.00;;;4.90;;
4963;SDS011;2497;47.410;9.740;2022-12-20T12:29:49;13.00;;;4.80;;
4963;SDS011;2497;47.410;9.740;2022-12-20T12:32:20;8.13;;;4.50;;
4963;SDS011;2497;47.410;9.740;2022-12-20T12:35:07;11.20;;;5.27;;
4963;SDS011;2497;47.410;9.740;2022-12-20T12:37:50;9.90;;;3.83;;
4963;SDS011;2497;47.410;9.740;2022-12-20T12:40:28;5.73;;;4.03;;
4963;SDS011;2497;47.410;9.740;2022-12-20T12:43:15;6.53;;;4.20;;
4963;SDS011;2497;47.410;9.740;2022-12-20T12:46:08;7.43;;;4.57;;
4963;SDS011;2497;47.410;9.740;2022-12-20T12:48:38;10.00;;;4.73;;
4963;SDS011;2497;47.410;9.740;2022-12-20T12:51:08;11.77;;;7.03;;
4963;SDS011;2497;47.410;9.740;2022-12-20T12:53:40;11.50;;;5.57;;
4963;SDS011;2497;47.410;9.740;2022-12-20T12:56:29;5.20;;;3.83;;
4963;SDS011;2497;47.410;9.740;2022-12-20T12:59:14;8.23;;;3.97;;
4963;SDS011;2497;47.410;9.740;2022-12-20T13:01:50;5.37;;;3.37;;
4963;SDS011;2497;47.410;9.740;2022-12-20T13:04:24;5.90;;;3.57;;
4963;SDS011;2497;47.410;9.740;2022-12-20T13:07:02;13.27;;;5.93;;
4963;SDS011;2497;47.410;9.740;2022-12-20T13:09:52;10.60;;;5.60;;
4963;SDS011;2497;47.410;9.740;2022-12-20T13:18:19;5.83;;;5.23;;
4963;SDS011;2497;47.410;9.740;2022-12-20T13:27:16;13.63;;;4.40;;
4963;SDS011;2497;47.410;9.740;2022-12-20T13:29:54;7.33;;;5.27;;
4963;SDS011;2497;47.410;9.740;2022-12-20T13:35:27;6.17;;;4.57;;
4963;SDS011;2497;47.410;9.740;2022-12-20T13:37:56;5.67;;;4.20;;
4963;SDS011;2497;47.410;9.740;2022-12-20T13:40:29;2.10;;;1.97;;
4963;SDS011;2497;47.410;9.740;2022-12-20T13:43:04;15.60;;;4.90;;
4963;SDS011;2497;47.410;9.740;2022-12-20T13:45:35;9.50;;;5.40;;
4963;SDS011;2497;47.410;9.740;2022-12-20T13:48:05;13.70;;;5.50;;
4963;SDS011;2497;47.410;9.740;2022-12-20T13:50:38;5.00;;;4.60;;
4963;SDS011;2497;47.410;9.740;2022-12-20T13:53:14;4.87;;;2.70;;
4963;SDS011;2497;47.410;9.740;2022-12-20T13:55:44;11.17;;;4.93;;
4963;SDS011;2497;47.410;9.740;2022-12-20T13:58:14;5.10;;;4.60;;
4963;SDS011;2497;47.410;9.740;2022-12-20T14:00:43;8.53;;;5.27;;
4963;SDS011;2497;47.410;9.740;2022-12-20T14:03:18;13.40;;;6.70;;
4963;SDS011;2497;47.410;9.740;2022-12-20T14:05:48;20.53;;;5.10;;
4963;SDS011;2497;47.410;9.740;2022-12-20T14:08:21;14.90;;;3.77;;
4963;SDS011;2497;47.410;9.740;2022-12-20T14:10:53;5.73;;;4.40;;
4963;SDS011;2497;47.410;9.740;2022-12-20T14:13:23;12.50;;;5.00;;
4963;SDS011;2497;47.410;9.740;2022-12-20T14:15:51;17.37;;;5.23;;
4963;SDS011;2497;47.410;9.740;2022-12-20T14:18:21;11.33;;;7.00;;
4963;SDS011;2497;47.410;9.740;2022-12-20T14:20:49;13.27;;;4.93;;
4963;SDS011;2497;47.410;9.740;2022-12-20T14:23:19;8.33;;;4.67;;
4963;SDS011;2497;47.410;9.740;2022-12-20T14:25:50;26.80;;;6.10;;
4963;SDS011;2497;47.410;9.740;2022-12-20T14:28:27;5.20;;;3.67;;
4963;SDS011;2497;47.410;9.740;2022-12-20T14:30:56;6.70;;;3.90;;
4963;SDS011;2497;47.410;9.740;2022-12-20T14:33:29;5.13;;;3.90;;
4963;SDS011;2497;47.410;9.740;2022-12-20T14:36:07;13.53;;;4.60;;
4963;SDS011;2497;47.410;9.740;2022-12-20T14:38:36;9.33;;;4.53;;
4963;SDS011;2497;47.410;9.740;2022-12-20T14:44:10;11.63;;;4.77;;
4963;SDS011;2497;47.410;9.740;2022-12-20T14:46:45;19.13;;;4.90;;
4963;SDS011;2497;47.410;9.740;2022-12-20T14:49:16;3.63;;;3.40;;
4963;SDS011;2497;47.410;9.740;2022-12-20T14:51:47;7.13;;;4.43;;
4963;SDS011;2497;47.410;9.740;2022-12-20T14:54:16;8.97;;;5.83;;
4963;SDS011;2497;47.410;9.740;2022-12-20T14:56:45;6.83;;;4.20;;
4963;SDS011;2497;47.410;9.740;2022-12-20T14:59:16;6.83;;;4.60;;
4963;SDS011;2497;47.410;9.740;2022-12-20T15:01:50;14.83;;;4.90;;
4963;SDS011;2497;47.410;9.740;2022-12-20T15:04:20;11.30;;;4.73;;
4963;SDS011;2497;47.410;9.740;2022-12-20T15:06:49;8.23;;;4.93;;
4963;SDS011;2497;47.410;9.740;2022-12-20T15:09:18;8.03;;;3.90;;
4963;SDS011;2497;47.410;9.740;2022-12-20T15:11:46;9.33;;;6.00;;
4963;SDS011;2497;47.410;9.740;2022-12-20T15:14:20;4.73;;;2.00;;
4963;SDS011;2497;47.410;9.740;2022-12-20T15:16:53;0.97;;;0.87;;
4963;SDS011;2497;47.410;9.740;2022-12-20T15:19:21;1.30;;;0.90;;
4963;SDS011;2497;47.410;9.740;2022-12-20T15:21:48;3.13;;;0.97;;
4963;SDS011;2497;47.410;9.740;2022-12-20T15:24:18;2.53;;;2.03;;
4963;SDS011;2497;47.410;9.740;2022-12-20T15:26:49;4.80;;;2.53;;
4963;SDS011;2497;47.410;9.740;2022-12-20T15:29:18;4.80;;;3.93;;
4963;SDS011;2497;47.410;9.740;2022-12-20T15:31:48;8.53;;;5.00;;
4963;SDS011;2497;47.410;9.740;2022-12-20T15:34:18;4.67;;;4.27;;
4963;SDS011;2497;47.410;9.740;2022-12-20T15:36:53;17.23;;;7.37;;
4963;SDS011;2497;47.410;9.740;2022-12-20T15:39:24;6.60;;;4.30;;
4963;SDS011;2497;47.410;9.740;2022-12-20T15:41:51;24.07;;;8.30;;
4963;SDS011;2497;47.410;9.740;2022-12-20T15:44:20;11.43;;;6.50;;
4963;SDS011;2497;47.410;9.740;2022-12-20T15:46:50;13.13;;;7.90;;
4963;SDS011;2497;47.410;9.740;2022-12-20T15:49:18;13.70;;;4.80;;
4963;SDS011;2497;47.410;9.740;2022-12-20T15:51:48;12.27;;;5.27;;
4963;SDS011;2497;47.410;9.740;2022-12-20T15:54:20;20.03;;;7.37;;
4963;SDS011;2497;47.410;9.740;2022-12-20T15:56:51;7.80;;;4.43;;
4963;SDS011;2497;47.410;9.740;2022-12-20T15:59:19;10.30;;;9.27;;
4963;SDS011;2497;47.410;9.740;2022-12-20T16:01:48;9.80;;;5.47;;